createdAt,value
2022-12-12T00:01:20.545Z,100274.94
2022-12-12T00:03:47.099Z,100278.44
2022-12-12T00:06:13.624Z,100285.31
2022-12-12T00:08:40.039Z,100286.28
2022-12-12T00:11:06.768Z,100280.13
2022-12-12T00:13:33.694Z,100273.22
2022-12-12T00:16:00.288Z,100279.28
2022-12-12T00:18:26.997Z,100277.56
2022-12-12T00:20:55.564Z,100283.56
2022-12-12T00:23:23.190Z,100273.22
2022-12-12T00:26:05.514Z,100276.81
2022-12-12T00:28:32.464Z,100275.03
2022-12-12T00:30:59.068Z,100271.81
2022-12-12T00:33:25.536Z,100271.75
2022-12-12T00:35:54.049Z,100272.78
2022-12-12T00:38:22.572Z,100266.13
2022-12-12T00:40:49.429Z,100271.25
2022-12-12T00:43:15.870Z,100270.16
2022-12-12T00:45:42.583Z,100279.66
2022-12-12T00:48:09.510Z,100274.50
2022-12-12T00:50:36.296Z,100276.28
2022-12-12T00:53:02.896Z,100275.34
2022-12-12T00:55:29.332Z,100291.22
2022-12-12T00:57:55.760Z,100295.25
2022-12-12T01:00:22.744Z,100288.63
2022-12-12T01:02:49.243Z,100286.81
2022-12-12T01:05:16.317Z,100302.38
2022-12-12T01:07:42.917Z,100301.53
2022-12-12T01:10:10.145Z,100304.97
2022-12-12T01:12:36.870Z,100303.25
2022-12-12T01:15:05.249Z,100299.22
2022-12-12T01:17:37.789Z,100293.19
2022-12-12T01:20:15.726Z,100297.16
2022-12-12T01:22:42.148Z,100302.72
2022-12-12T01:25:10.343Z,100297.41
2022-12-12T01:27:37.338Z,100290.41
2022-12-12T01:30:05.299Z,100284.28
2022-12-12T01:32:31.834Z,100297.25
2022-12-12T01:34:58.645Z,100289.72
2022-12-12T01:37:25.255Z,100289.53
2022-12-12T01:39:51.688Z,100293.63
2022-12-12T01:42:19.469Z,100298.69
2022-12-12T01:44:50.957Z,100286.78
2022-12-12T01:47:20.908Z,100301.34
2022-12-12T01:50:05.696Z,100299.63
2022-12-12T01:52:44.129Z,100311.69
2022-12-12T01:55:17.348Z,100312.09
2022-12-12T01:57:47.300Z,100311.00
2022-12-12T02:00:14.826Z,100302.53
2022-12-12T02:02:44.281Z,100307.53
2022-12-12T02:05:24.867Z,100285.91
2022-12-12T02:07:52.231Z,100289.81
2022-12-12T02:10:18.902Z,100299.03
2022-12-12T02:12:46.143Z,100290.59
2022-12-12T02:15:13.541Z,100297.34
2022-12-12T02:18:12.986Z,100313.69
2022-12-12T02:20:39.478Z,100305.53
2022-12-12T02:23:14.782Z,100311.28
2022-12-12T02:26:02.632Z,100314.59
2022-12-12T02:29:04.305Z,100314.47
2022-12-12T02:31:53.903Z,100305.72
2022-12-12T02:34:26.379Z,100314.78
2022-12-12T02:37:22.091Z,100311.94
2022-12-12T02:40:07.128Z,100315.28
2022-12-12T02:42:53.219Z,100313.19
2022-12-12T02:45:37.642Z,100320.09
2022-12-12T02:48:14.763Z,100313.13
2022-12-12T02:50:42.910Z,100310.06
2022-12-12T02:53:09.427Z,100310.16
2022-12-12T02:55:36.716Z,100317.91
2022-12-12T02:58:05.394Z,100307.31
2022-12-12T03:00:40.737Z,100315.59
2022-12-12T03:03:34.772Z,100304.78
2022-12-12T03:06:25.810Z,100307.88
2022-12-12T03:09:12.793Z,100317.78
2022-12-12T03:12:02.667Z,100314.31
2022-12-12T03:14:53.101Z,100324.47
2022-12-12T03:17:56.951Z,100327.00
2022-12-12T03:20:47.702Z,100326.78
2022-12-12T03:23:17.737Z,100321.50
2022-12-12T03:25:58.248Z,100323.41
2022-12-12T03:28:31.182Z,100324.91
2022-12-12T03:31:00.585Z,100323.53
2022-12-12T03:33:39.743Z,100331.25
2022-12-12T03:36:20.622Z,100328.47
2022-12-12T03:38:57.355Z,100324.00
2022-12-12T03:41:30.980Z,100320.56
2022-12-12T03:44:41.640Z,100327.50
2022-12-12T03:47:14.017Z,100313.56
2022-12-12T03:49:46.856Z,100319.66
2022-12-12T03:52:19.665Z,100325.09
2022-12-12T03:54:51.007Z,100323.56
2022-12-12T03:57:26.810Z,100319.53
2022-12-12T04:00:07.562Z,100319.25
2022-12-12T04:02:55.443Z,100324.94
2022-12-12T04:05:37.314Z,100321.66
2022-12-12T04:08:12.832Z,100324.88
2022-12-12T04:11:06.564Z,100324.44
2022-12-12T04:13:49.264Z,100333.41
2022-12-12T04:16:20.495Z,100338.16
2022-12-12T04:18:56.977Z,100337.16
2022-12-12T04:21:59.195Z,100334.38
2022-12-12T04:24:49.020Z,100341.38
2022-12-12T04:27:27.391Z,100325.03
2022-12-12T04:30:07.452Z,100334.19
2022-12-12T04:32:39.718Z,100338.22
2022-12-12T04:35:13.544Z,100341.56
2022-12-12T04:37:45.084Z,100349.94
2022-12-12T04:40:18.064Z,100346.38
2022-12-12T04:42:50.971Z,100348.53
2022-12-12T04:45:21.695Z,100345.81
2022-12-12T04:47:52.139Z,100344.44
2022-12-12T04:50:21.982Z,100354.22
2022-12-12T04:52:51.696Z,100350.50
2022-12-12T04:55:24.429Z,100334.97
2022-12-12T04:57:54.683Z,100337.41
2022-12-12T05:00:23.227Z,100340.50
2022-12-12T05:02:53.196Z,100336.44
2022-12-12T05:05:27.467Z,100349.19
2022-12-12T05:08:03.477Z,100344.75
2022-12-12T05:10:30.243Z,100345.66
2022-12-12T05:12:59.177Z,100340.13
2022-12-12T05:15:27.466Z,100341.63
2022-12-12T05:18:07.567Z,100347.13
2022-12-12T05:20:34.025Z,100343.31
2022-12-12T05:23:00.525Z,100347.94
2022-12-12T05:25:27.079Z,100354.56
2022-12-12T05:27:53.530Z,100359.56
2022-12-12T05:30:20.147Z,100352.56
2022-12-12T05:32:46.601Z,100345.56
2022-12-12T05:35:13.506Z,100354.19
2022-12-12T05:37:40.375Z,100358.66
2022-12-12T05:40:08.818Z,100355.16
2022-12-12T05:42:35.257Z,100366.41
2022-12-12T05:45:02.012Z,100366.53
2022-12-12T05:47:28.466Z,100371.66
2022-12-12T05:49:54.881Z,100376.75
2022-12-12T05:52:21.342Z,100375.09
2022-12-12T05:54:47.799Z,100371.03
2022-12-12T05:57:14.454Z,100362.22
2022-12-12T05:59:40.891Z,100368.75
2022-12-12T06:02:07.400Z,100374.28
2022-12-12T06:04:34.097Z,100383.72
2022-12-12T06:07:01.077Z,100378.88
2022-12-12T06:09:27.825Z,100387.41
2022-12-12T06:11:55.211Z,100383.44
2022-12-12T06:14:21.753Z,100388.53
2022-12-12T06:16:48.244Z,100387.34
2022-12-12T06:19:14.861Z,100387.59
2022-12-12T06:21:41.357Z,100387.53
2022-12-12T06:24:08.039Z,100386.66
2022-12-12T06:26:34.593Z,100389.47
2022-12-12T06:29:07.161Z,100384.09
2022-12-12T06:31:34.034Z,100389.47
2022-12-12T06:34:00.591Z,100379.19
2022-12-12T06:36:27.278Z,100391.31
2022-12-12T06:38:55.857Z,100384.97
2022-12-12T06:41:24.180Z,100400.16
2022-12-12T06:43:51.075Z,100398.88
2022-12-12T06:46:23.263Z,100403.56
2022-12-12T06:48:50.469Z,100412.75
2022-12-12T06:51:20.292Z,100402.38
2022-12-12T06:53:47.233Z,100393.09
2022-12-12T06:56:17.089Z,100405.78
2022-12-12T06:58:44.256Z,100402.50
2022-12-12T07:01:20.582Z,100406.91
2022-12-12T07:03:49.414Z,100412.84
2022-12-12T07:06:17.486Z,100410.72
2022-12-12T07:08:44.197Z,100416.19
2022-12-12T07:11:12.906Z,100411.53
2022-12-12T07:13:39.811Z,100404.94
2022-12-12T07:16:06.907Z,100415.00
2022-12-12T07:18:33.596Z,100423.84
2022-12-12T07:21:00.029Z,100431.50
2022-12-12T07:23:32.624Z,100432.13
2022-12-12T07:25:59.450Z,100427.41
2022-12-12T07:28:30.147Z,100430.59
2022-12-12T07:30:56.658Z,100433.91
2022-12-12T07:33:23.203Z,100447.03
2022-12-12T07:35:49.610Z,100434.81
2022-12-12T07:38:16.006Z,100449.91
2022-12-12T07:40:42.430Z,100444.13
2022-12-12T07:43:08.889Z,100449.25
2022-12-12T07:45:35.299Z,100443.78
2022-12-12T07:48:01.836Z,100450.06
2022-12-12T07:50:28.338Z,100450.84
2022-12-12T07:52:54.913Z,100454.38
2022-12-12T07:55:21.330Z,100444.94
2022-12-12T07:57:48.952Z,100460.06
2022-12-12T08:00:16.103Z,100467.00
2022-12-12T08:02:42.552Z,100464.72
2022-12-12T08:05:09.341Z,100459.97
2022-12-12T08:07:35.955Z,100464.03
2022-12-12T08:10:02.373Z,100464.22
2022-12-12T08:12:39.566Z,100461.03
2022-12-12T08:15:06.441Z,100464.28
2022-12-12T08:17:32.877Z,100456.88
2022-12-12T08:19:59.343Z,100456.53
2022-12-12T08:22:25.812Z,100458.66
2022-12-12T08:24:52.236Z,100451.31
2022-12-12T08:27:18.657Z,100463.00
2022-12-12T08:29:45.253Z,100463.00
2022-12-12T08:32:11.964Z,100468.59
2022-12-12T08:34:44.111Z,100462.91
2022-12-12T08:37:10.573Z,100468.13
2022-12-12T08:39:38.066Z,100459.38
2022-12-12T08:42:04.540Z,100467.25
2022-12-12T08:44:33.286Z,100463.66
2022-12-12T08:46:59.846Z,100469.47
2022-12-12T08:49:26.466Z,100471.16
2022-12-12T08:51:52.937Z,100481.41
2022-12-12T08:54:19.626Z,100475.41
2022-12-12T08:56:46.180Z,100470.22
2022-12-12T08:59:13.347Z,100476.00
2022-12-12T09:01:40.984Z,100473.38
2022-12-12T09:04:07.802Z,100477.47
2022-12-12T09:06:34.326Z,100480.31
2022-12-12T09:09:01.112Z,100479.28
2022-12-12T09:11:28.540Z,100473.34
2022-12-12T09:13:54.998Z,100472.63
2022-12-12T09:16:23.301Z,100488.84
2022-12-12T09:18:49.826Z,100479.88
2022-12-12T09:21:17.323Z,100485.13
2022-12-12T09:23:44.124Z,100486.97
2022-12-12T09:26:11.485Z,100492.38
2022-12-12T09:28:38.599Z,100489.47
2022-12-12T09:31:11.215Z,100486.56
2022-12-12T09:33:38.611Z,100485.19
2022-12-12T09:36:06.935Z,100490.84
2022-12-12T09:38:34.159Z,100480.41
2022-12-12T09:41:09.726Z,100484.53
2022-12-12T09:43:51.482Z,100490.53
2022-12-12T09:46:30.083Z,100485.69
2022-12-12T09:49:25.181Z,100484.50
2022-12-12T09:51:53.001Z,100494.31
2022-12-12T09:54:25.504Z,100490.88
2022-12-12T09:56:54.862Z,100492.91
2022-12-12T09:59:42.784Z,100490.06
2022-12-12T10:02:40.132Z,100480.00
2022-12-12T10:05:28.735Z,100499.25
2022-12-12T10:08:01.425Z,100491.03
2022-12-12T10:10:33.755Z,100491.13
2022-12-12T10:13:03.025Z,100489.06
2022-12-12T10:15:31.534Z,100498.34
2022-12-12T10:18:03.414Z,100487.75
2022-12-12T10:20:32.201Z,100479.75
2022-12-12T10:23:22.619Z,100495.75
2022-12-12T10:26:01.738Z,100500.47
2022-12-12T10:28:30.818Z,100484.78
2022-12-12T10:31:18.401Z,100493.13
2022-12-12T10:34:12.554Z,100494.84
2022-12-12T10:36:51.053Z,100486.66
2022-12-12T10:39:49.795Z,100484.44
2022-12-12T10:42:36.053Z,100474.31
2022-12-12T10:45:08.382Z,100495.03
2022-12-12T10:47:35.244Z,100484.50
2022-12-12T10:50:17.429Z,100483.81
2022-12-12T10:52:43.828Z,100483.59
2022-12-12T10:55:53.623Z,100485.88
2022-12-12T10:58:24.943Z,100490.81
2022-12-12T11:00:51.995Z,100474.53
2022-12-12T11:03:26.852Z,100478.97
2022-12-12T11:05:55.315Z,100477.91
2022-12-12T11:08:26.196Z,100482.69
2022-12-12T11:11:23.359Z,100473.78
2022-12-12T11:14:02.357Z,100471.97
2022-12-12T11:16:44.284Z,100475.31
2022-12-12T11:19:23.364Z,100476.03
2022-12-12T11:21:51.659Z,100469.13
2022-12-12T11:24:21.319Z,100463.94
2022-12-12T11:27:20.318Z,100472.13
2022-12-12T11:29:49.979Z,100469.34
2022-12-12T11:32:27.122Z,100469.69
2022-12-12T11:34:58.170Z,100468.34
2022-12-12T11:37:29.073Z,100462.31
2022-12-12T11:39:57.286Z,100452.09
2022-12-12T11:42:31.985Z,100463.13
2022-12-12T11:45:19.739Z,100450.41
2022-12-12T11:47:47.820Z,100450.03
2022-12-12T11:50:27.432Z,100453.59
2022-12-12T11:52:56.170Z,100457.19
2022-12-12T11:55:54.496Z,100455.78
2022-12-12T11:58:24.353Z,100460.75
2022-12-12T12:01:02.241Z,100456.88
2022-12-12T12:03:37.664Z,100456.03
2022-12-12T12:06:19.403Z,100451.50
2022-12-12T12:09:23.664Z,100459.22
2022-12-12T12:12:14.643Z,100469.59
2022-12-12T12:14:43.664Z,100468.97
2022-12-12T12:17:31.398Z,100461.75
2022-12-12T12:20:31.945Z,100467.81
2022-12-12T12:23:06.210Z,100466.75
2022-12-12T12:25:37.393Z,100469.13
2022-12-12T12:28:03.779Z,100468.66
2022-12-12T12:30:51.539Z,100462.88
2022-12-12T12:33:31.570Z,100466.47
2022-12-12T12:36:40.719Z,100473.63
2022-12-12T12:39:13.021Z,100466.56
2022-12-12T12:41:42.516Z,100466.59
2022-12-12T12:44:24.688Z,100452.78
2022-12-12T12:46:55.856Z,100463.72
2022-12-12T12:49:31.465Z,100456.16
2022-12-12T12:52:06.148Z,100448.03
2022-12-12T12:54:38.793Z,100456.38
2022-12-12T12:57:21.680Z,100458.97
2022-12-12T12:59:53.251Z,100447.47
2022-12-12T13:02:48.016Z,100447.19
2022-12-12T13:05:20.470Z,100449.00
2022-12-12T13:08:32.358Z,100440.50
2022-12-12T13:11:06.664Z,100450.25
2022-12-12T13:13:39.383Z,100448.41
2022-12-12T13:16:11.644Z,100447.22
2022-12-12T13:18:47.575Z,100442.91
2022-12-12T13:21:35.596Z,100442.94
2022-12-12T13:24:28.523Z,100452.97
2022-12-12T13:27:09.800Z,100451.69
2022-12-12T13:29:59.440Z,100447.72
2022-12-12T13:33:00.048Z,100448.78
2022-12-12T13:35:35.363Z,100440.31
2022-12-12T13:38:03.247Z,100445.81
2022-12-12T13:40:39.326Z,100457.00
2022-12-12T13:43:25.705Z,100458.28
2022-12-12T13:45:53.988Z,100453.13
2022-12-12T13:48:29.312Z,100450.81
2022-12-12T13:51:30.985Z,100449.00
2022-12-12T13:54:12.083Z,100450.69
2022-12-12T13:56:57.752Z,100434.44
2022-12-12T13:59:27.046Z,100446.81
2022-12-12T14:02:03.796Z,100449.06
2022-12-12T14:04:43.498Z,100453.97
2022-12-12T14:07:12.886Z,100459.56
2022-12-12T14:09:49.146Z,100459.63
2022-12-12T14:12:32.014Z,100453.06
2022-12-12T14:15:01.990Z,100460.09
2022-12-12T14:17:35.504Z,100457.13
2022-12-12T14:20:07.340Z,100459.03
2022-12-12T14:22:36.761Z,100457.88
2022-12-12T14:25:12.192Z,100455.41
2022-12-12T14:27:50.527Z,100461.84
2022-12-12T14:30:18.027Z,100458.09
2022-12-12T14:32:56.416Z,100457.38
2022-12-12T14:35:29.057Z,100463.34
2022-12-12T14:38:13.923Z,100462.53
2022-12-12T14:40:46.051Z,100459.50
2022-12-12T14:43:22.099Z,100466.28
2022-12-12T14:45:49.174Z,100467.13
2022-12-12T14:48:21.633Z,100469.00
2022-12-12T14:51:09.109Z,100463.72
2022-12-12T14:53:38.654Z,100465.53
2022-12-12T14:56:22.550Z,100475.28
2022-12-12T14:58:54.904Z,100472.63
2022-12-12T15:01:34.270Z,100467.44
2022-12-12T15:04:05.631Z,100467.44
2022-12-12T15:06:37.707Z,100473.72
2022-12-12T15:09:35.321Z,100471.31
2022-12-12T15:12:10.791Z,100471.34
2022-12-12T15:14:40.020Z,100475.69
2022-12-12T15:17:15.820Z,100475.88
2022-12-12T15:19:44.666Z,100479.38
2022-12-12T15:22:32.765Z,100480.41
2022-12-12T15:25:02.828Z,100482.38
2022-12-12T15:27:47.047Z,100492.09
2022-12-12T15:30:23.646Z,100482.41
2022-12-12T15:32:50.587Z,100486.94
2022-12-12T15:35:20.614Z,100486.34
2022-12-12T15:38:02.690Z,100482.00
2022-12-12T15:40:34.013Z,100486.56
2022-12-12T15:43:03.550Z,100489.28
2022-12-12T15:45:37.851Z,100475.59
2022-12-12T15:48:06.426Z,100488.53
2022-12-12T15:50:41.592Z,100482.31
2022-12-12T15:53:20.142Z,100480.00
2022-12-12T15:55:56.785Z,100490.16
2022-12-12T15:58:29.698Z,100482.41
2022-12-12T16:01:20.760Z,100493.03
2022-12-12T16:04:00.774Z,100495.41
2022-12-12T16:06:36.859Z,100482.53
2022-12-12T16:09:22.830Z,100500.03
2022-12-12T16:11:55.715Z,100487.13
2022-12-12T16:14:41.365Z,100494.09
2022-12-12T16:17:20.666Z,100493.22
2022-12-12T16:20:13.789Z,100497.69
2022-12-12T16:22:47.198Z,100502.94
2022-12-12T16:25:27.118Z,100494.22
2022-12-12T16:27:59.512Z,100498.59
2022-12-12T16:30:27.284Z,100490.81
2022-12-12T16:32:53.875Z,100491.72
2022-12-12T16:35:23.572Z,100487.38
2022-12-12T16:37:52.464Z,100491.78
2022-12-12T16:40:20.333Z,100486.69
2022-12-12T16:43:09.315Z,100485.81
2022-12-12T16:45:37.752Z,100494.47
2022-12-12T16:48:18.932Z,100497.19
2022-12-12T16:50:46.491Z,100485.84
2022-12-12T16:53:13.244Z,100496.31
2022-12-12T16:55:42.869Z,100492.16
2022-12-12T16:58:09.827Z,100497.44
2022-12-12T17:00:38.093Z,100496.50
2022-12-12T17:03:05.004Z,100501.81
2022-12-12T17:05:32.375Z,100487.91
2022-12-12T17:07:58.952Z,100492.22
2022-12-12T17:10:25.915Z,100500.94
2022-12-12T17:12:54.159Z,100504.47
2022-12-12T17:15:26.912Z,100504.59
2022-12-12T17:17:54.034Z,100499.41
2022-12-12T17:20:20.658Z,100504.69
2022-12-12T17:22:47.326Z,100510.00
2022-12-12T17:25:14.085Z,100516.06
2022-12-12T17:27:41.256Z,100515.22
2022-12-12T17:30:09.472Z,100504.84
2022-12-12T17:32:36.098Z,100513.59
2022-12-12T17:35:03.598Z,100507.56
2022-12-12T17:37:30.147Z,100516.28
2022-12-12T17:39:56.557Z,100512.91
2022-12-12T17:42:23.068Z,100513.78
2022-12-12T17:44:49.627Z,100518.97
2022-12-12T17:47:16.678Z,100508.63
2022-12-12T17:49:43.224Z,100504.28
2022-12-12T17:52:09.610Z,100502.59
2022-12-12T17:54:36.063Z,100497.56
2022-12-12T17:57:02.513Z,100512.28
2022-12-12T17:59:28.935Z,100509.75
2022-12-12T18:01:55.394Z,100506.34
2022-12-12T18:04:27.824Z,100504.59
2022-12-12T18:06:54.872Z,100507.22
2022-12-12T18:09:21.445Z,100518.47
2022-12-12T18:11:48.267Z,100515.06
2022-12-12T18:14:16.013Z,100518.59
2022-12-12T18:16:44.821Z,100514.25
2022-12-12T18:19:11.384Z,100506.47
2022-12-12T18:24:29.373Z,100503.84
2022-12-12T18:26:58.271Z,100508.31
2022-12-12T18:29:25.519Z,100515.53
2022-12-12T18:31:52.366Z,100518.78
2022-12-12T18:34:19.514Z,100510.88
2022-12-12T18:36:45.984Z,100507.78
2022-12-12T18:39:12.515Z,100523.66
2022-12-12T18:41:39.049Z,100515.03
2022-12-12T18:44:07.473Z,100513.50
2022-12-12T18:46:41.966Z,100516.94
2022-12-12T18:49:10.987Z,100517.00
2022-12-12T18:51:37.628Z,100520.34
2022-12-12T18:54:10.928Z,100515.06
2022-12-12T18:56:40.383Z,100511.69
2022-12-12T18:59:07.109Z,100506.56
2022-12-12T19:01:35.315Z,100508.13
2022-12-12T19:04:08.977Z,100506.66
2022-12-12T19:06:38.296Z,100507.06
2022-12-12T19:09:07.760Z,100518.13
2022-12-12T19:11:35.730Z,100506.66
2022-12-12T19:14:02.653Z,100518.91
2022-12-12T19:16:29.105Z,100519.91
2022-12-12T19:18:55.571Z,100527.66
2022-12-12T19:21:24.297Z,100521.53
2022-12-12T19:23:51.810Z,100513.69
2022-12-12T19:26:26.682Z,100526.69
2022-12-12T19:29:08.288Z,100530.94
2022-12-12T19:31:35.930Z,100528.28
2022-12-12T19:34:05.347Z,100530.78
2022-12-12T19:36:32.489Z,100525.63
2022-12-12T19:39:00.571Z,100522.41
2022-12-12T19:41:27.743Z,100530.25
2022-12-12T19:43:55.132Z,100538.97
2022-12-12T19:46:24.127Z,100539.78
2022-12-12T19:48:58.098Z,100544.22
2022-12-12T19:51:26.641Z,100541.69
2022-12-12T19:53:58.088Z,100541.69
2022-12-12T19:56:27.524Z,100541.78
2022-12-12T19:58:55.242Z,100542.69
2022-12-12T20:01:25.102Z,100538.53
2022-12-12T20:03:54.919Z,100537.50
2022-12-12T20:06:22.370Z,100540.06
2022-12-12T20:08:49.384Z,100542.84
2022-12-12T20:11:18.311Z,100544.59
2022-12-12T20:13:48.955Z,100544.44
2022-12-12T20:16:18.291Z,100550.63
2022-12-12T20:18:47.240Z,100543.63
2022-12-12T20:21:30.005Z,100540.97
2022-12-12T20:24:00.335Z,100543.66
2022-12-12T20:26:29.336Z,100542.00
2022-12-12T20:28:59.417Z,100547.94
2022-12-12T20:31:28.431Z,100543.50
2022-12-12T20:33:56.635Z,100545.28
2022-12-12T20:36:31.576Z,100534.88
2022-12-12T20:39:00.571Z,100530.47
2022-12-12T20:41:29.445Z,100527.84
2022-12-12T20:43:58.316Z,100522.66
2022-12-12T20:46:30.758Z,100523.47
2022-12-12T20:48:59.383Z,100520.91
2022-12-12T20:54:22.045Z,100528.75
2022-12-12T20:56:49.402Z,100530.53
2022-12-12T20:59:15.897Z,100513.28
2022-12-12T21:01:42.368Z,100531.66
2022-12-12T21:04:09.430Z,100525.53
2022-12-12T21:06:38.717Z,100523.78
2022-12-12T21:09:08.601Z,100528.97
2022-12-12T21:11:36.285Z,100518.53
2022-12-12T21:14:03.201Z,100525.47
2022-12-12T21:16:33.390Z,100527.19
2022-12-12T21:19:07.077Z,100517.66
2022-12-12T21:21:33.898Z,100519.38
2022-12-12T21:24:00.869Z,100521.06
2022-12-12T21:26:29.847Z,100513.34
2022-12-12T21:28:57.317Z,100521.16
2022-12-12T21:31:27.591Z,100516.84
2022-12-12T21:33:54.163Z,100512.66
2022-12-12T21:36:23.192Z,100509.41
2022-12-12T21:38:50.799Z,100521.47
2022-12-12T21:41:19.615Z,100523.22
2022-12-12T21:43:47.663Z,100519.72
2022-12-12T21:46:17.155Z,100522.25
2022-12-12T21:48:43.812Z,100507.63
2022-12-12T21:51:14.443Z,100519.75
2022-12-12T21:53:41.715Z,100525.78
2022-12-12T21:56:13.003Z,100527.41
2022-12-12T21:58:41.442Z,100532.50
2022-12-12T22:01:11.061Z,100536.06
2022-12-12T22:03:37.694Z,100537.84
2022-12-12T22:06:13.414Z,100539.56
2022-12-12T22:08:40.946Z,100532.59
2022-12-12T22:11:08.524Z,100540.38
2022-12-12T22:13:39.895Z,100541.19
2022-12-12T22:16:17.407Z,100538.63
2022-12-12T22:18:44.137Z,100536.88
2022-12-12T22:21:15.153Z,100532.56
2022-12-12T22:23:42.688Z,100526.56
2022-12-12T22:26:14.075Z,100528.28
2022-12-12T22:28:40.970Z,100518.78
2022-12-12T22:31:07.417Z,100523.13
2022-12-12T22:33:33.864Z,100526.59
2022-12-12T22:36:04.743Z,100523.06
2022-12-12T22:38:34.783Z,100533.56
2022-12-12T22:41:06.321Z,100533.63
2022-12-12T22:43:33.074Z,100527.66
2022-12-12T22:46:07.260Z,100535.44
2022-12-12T22:48:34.645Z,100534.44
2022-12-12T22:51:15.344Z,100536.13
2022-12-12T22:53:44.393Z,100529.25
2022-12-12T22:56:12.052Z,100530.16
2022-12-12T22:58:39.177Z,100524.84
2022-12-12T23:01:17.938Z,100517.94
2022-12-12T23:03:44.977Z,100517.03
2022-12-12T23:06:15.906Z,100521.41
2022-12-12T23:08:43.641Z,100520.75
2022-12-12T23:11:13.342Z,100516.50
2022-12-12T23:13:43.420Z,100522.50
2022-12-12T23:16:21.082Z,100514.72
2022-12-12T23:18:48.342Z,100515.44
2022-12-12T23:21:18.004Z,100519.84
2022-12-12T23:23:46.130Z,100511.22
2022-12-12T23:26:15.370Z,100517.19
2022-12-12T23:28:42.608Z,100518.06
2022-12-12T23:31:12.147Z,100515.53
2022-12-12T23:33:39.062Z,100503.41
2022-12-12T23:36:09.184Z,100505.19
2022-12-12T23:38:36.052Z,100512.94
2022-12-12T23:41:10.956Z,100514.69
2022-12-12T23:43:37.423Z,100506.94
2022-12-12T23:46:06.502Z,100504.28
2022-12-12T23:48:33.904Z,100509.50
2022-12-12T23:51:00.936Z,100513.03
2022-12-12T23:53:30.621Z,100512.97
2022-12-12T23:56:02.313Z,100506.06
2022-12-12T23:58:28.716Z,100502.72
